Hannover Airport EDDV

Flugplatz Daten

Name: Hannover Airport

Ident: EDDV

Lat: 52,46110153

Long: 9,685079575

Platzhöhe: 183 ft

IataCode: HAJ

City: Hannover

Metar

2021/10/16 18:20
EDDV 161820Z 23003KT 190V270 9999 BKN044 09/05 Q1021 NOSIG

Taf

2021/10/16 18:27
TAF EDDV 161700Z 1618/1718 23004KT 9999 SCT030
TEMPO 1708/1713 23009KT
Gewünschte Webcam nicht vorhanden? Dann fügen Sie eine hinzu. Sie wird dann so schnell wie möglich freigeschaltet
Url: Title: